Aérodrome :







RETROUVEZ-NOUS SUR...

 
LOGIN :

S'inscrire | Disclaimer

   EN    FR    IT 

 









Légende :    VFR   VFR Marginal   IFR   IFR Intensif   IFR Très Intensif
Visi : 
Plafond : 
>= 8 km
>= 3000ft
5 à 8 km
1000 à 3000 ft
1500m à 5 km
500 à 1000 ft
800 à 1500m
200 à 500 ft
< 800m
< 200 ft
Symboles :   Orages  Brouillard  Fortes neiges  Fortes précipitations  Vent > 20 kt






- Altitude de l'aérodrome : 1188 ft


KCDA - Caledonia County

DERNIER METAR :
  • 020555Z AUTO 29008KT 10SM OVC013 01/M01 A2978 RMK AO2 T00051014 10025 20003

METARs EXPIRÉS :
  • 020535Z AUTO 29006KT 10SM OVC015 01/M01 A2978 RMK AO2 T00051015
  • 020516Z AUTO 28006KT 10SM BKN017 BKN030 BKN060 00/M02 A2979 RMK AO2 T00041016
  • 020455Z AUTO 28004KT 10SM BKN019 BKN030 OVC060 01/M01 A2979 RMK AO2 T00061015 400631047
  • 020435Z AUTO 28005KT 10SM BKN019 OVC024 01/M01 A2980 RMK AO2 T00101014
  • 020415Z AUTO 31004KT 10SM OVC021 01/M01 A2981 RMK AO2 T00111013
  • 020356Z AUTO 32005KT 10SM BKN019 OVC027 01/M01 A2980 RMK AO2 T00131014
  • 020336Z AUTO 27005KT 10SM BKN019 OVC027 01/M01 A2979 RMK AO2 T00131014
  • 020315Z AUTO 31005KT 10SM OVC019 01/M01 A2980 RMK AO2 T00131013

TAF N/A



MET'MAP, la Météo Aéronautique d'un coup d'oeil ! - Copyright ORBIFLY Décembre 2007 - Disclaimer

ORBIFLY MET'MAP TEAM :

Programmation & Développement : Alexandra Zaïnal
Sur une idée originale de : Baudouin d'Aumeries
Assistance à la programmation : Marc-Olivier Méhu
Soutien technique & logistique : Manuel Goepfert

Contact : metmap@orbifly.com




SOURCES & CREDITS :

   NOAA